Eurodam — PHOS — position and weather

sailwx.info

Track history (hours):
 
Tides and Currents Weather Stations Pressure Air Temp Water Temp Dewpoint Dewpoint Depression Visibility Wind Speed Wind Dir Waves Ship Positions

Eurodam (Netherlands)

Last reported at 2015-May-22 06:04 UTC. Time now 2015-May-22 17:31 UTC.
Position N 55°47' E 015°59'.

Length 287 m; draft 8 m.

Type: Ship. MMSI: 245206000.

Date/timePositionNaut miles runAvg speedWind from/ knotsBaromVisibWave heightAir tempDewpointWater temp
2015-May-22 06:04N 55°47' E 015°59'816.8
2015-May-22 05:33N 55°43' E 015°45'1716.9
2015-May-22 04:33N 55°36' E 015°18'1717.1
2015-May-22 03:33N 55°28' E 014°52'1717.1
2015-May-22 02:33N 55°16' E 014°30'1817.6
2015-May-22 01:33N 55°02' E 014°11'1817.7
2015-May-22 00:33N 54°56' E 013°42'1817.6
2015-May-21 23:32N 54°51' E 013°12'1717.4
2015-May-21 22:33N 54°46' E 012°43'1717.1
2015-May-21 21:33N 54°37' E 012°19'1514.9
2015-May-21 20:33N 54°24' E 012°05'1616.3
2015-May-21 19:33N 54°26' E 011°38'1717.2
2015-May-21 18:33N 54°34' E 011°11'1716.5
2015-May-21 17:33N 54°34' E 010°42'1212.4
2015-May-21 16:33N 54°30' E 010°22'1211.5
2015-May-21 15:33N 54°21' E 010°10'2 1.7
2015-May-21 14:32N 54°20' E 010°09'0 0.0
2015-May-21 13:32N 54°20' E 010°09'0 0.0
2015-May-21 12:32N 54°20' E 010°09'0 0.0
2015-May-21 11:32N 54°20' E 010°09'0 0.0
2015-May-21 10:32N 54°20' E 010°09'0 0.0
2015-May-21 09:32N 54°20' E 010°09'0 0.0
2015-May-21 08:32N 54°20' E 010°09'0 0.0
2015-May-21 07:32N 54°20' E 010°09'0 0.0
2015-May-21 06:32N 54°20' E 010°09'0 0.0
2015-May-21 05:32N 54°20' E 010°09'0 0.0
2015-May-21 04:32N 54°20' E 010°09'4 3.6
2015-May-21 03:33N 54°23' E 010°11'1211.8
2015-May-21 02:33N 54°32' E 010°25'1212.0
2015-May-21 01:33N 54°37' E 010°43'9412.4
2015-May-20 18:00N 56°06' E 011°36'1023.1 220 / 151012.710.8 0.511.6 6.510.2
2015-May-20 17:33N 56°09' E 011°53'1515.2
2015-May-20 16:33N 56°12' E 012°20'1716.6
2015-May-20 15:34N 56°01' E 012°41'1615.6
2015-May-20 14:33N 55°45' E 012°41'3 2.8
2015-May-20 13:32N 55°43' E 012°38'0 0.0
2015-May-20 12:31N 55°43' E 012°38'0 0.0
2015-May-20 11:31N 55°43' E 012°38'0 0.0
2015-May-20 10:33N 55°43' E 012°38'0 0.0
2015-May-20 09:33N 55°43' E 012°38'0 0.0
2015-May-20 08:33N 55°43' E 012°38'0 0.0
2015-May-20 07:33N 55°43' E 012°38'0 0.0
2015-May-20 06:33N 55°43' E 012°38'0 0.0
2015-May-20 05:33N 55°43' E 012°38'0 0.0
2015-May-20 04:32N 55°43' E 012°38'0 0.0
2015-May-20 03:31N 55°43' E 012°38'0 0.0
2015-May-20 02:31N 55°43' E 012°38'0 0.0
2015-May-20 01:31N 55°43' E 012°38'0 0.0
2015-May-20 00:31N 55°43' E 012°38'0 0.0
2015-May-19 23:31N 55°43' E 012°38'0 0.0
2015-May-19 22:31N 55°43' E 012°38'0 0.0
2015-May-19 21:31N 55°43' E 012°38'0 0.0
2015-May-19 20:31N 55°43' E 012°38'0 0.0
2015-May-19 19:31N 55°43' E 012°38'0 0.0
2015-May-19 18:31N 55°43' E 012°38'0 0.0
2015-May-19 17:31N 55°43' E 012°38'0 0.0
2015-May-19 16:31N 55°43' E 012°38'0 0.0
2015-May-19 15:31N 55°43' E 012°38'0 0.0
2015-May-19 14:33N 55°43' E 012°38'0 0.0
2015-May-19 13:33N 55°43' E 012°38'0 0.0
2015-May-19 12:33N 55°43' E 012°38'0 0.0
2015-May-19 11:33N 55°43' E 012°38'0 0.0
2015-May-19 10:33N 55°43' E 012°38'0 0.0
2015-May-19 09:33N 55°43' E 012°38'0 0.2
2015-May-19 08:33N 55°43' E 012°38'1010.4
2015-May-19 07:33N 55°53' E 012°44'1313.5
2015-May-19 06:33N 56°05' E 012°35'1515.2
2015-May-19 05:34N 56°13' E 012°11'1615.5
2015-May-19 04:31N 56°07' E 011°44'9313.3
2015-May-18 21:33N 54°38' E 010°53'1717.1
2015-May-18 20:34N 54°33' E 011°21'1817.8
2015-May-18 19:34N 54°26' E 011°49'1514.6
2015-May-18 18:33N 54°14' E 012°04'4 3.2
2015-May-18 17:24N 54°11' E 012°06'0 0.0
2015-May-18 16:30N 54°11' E 012°06'0 0.0
2015-May-18 15:27N 54°11' E 012°06'0 0.0
2015-May-18 13:03N 54°11' E 012°06'0 0.0
2015-May-18 12:27N 54°11' E 012°06'0 0.0
2015-May-18 11:33N 54°11' E 012°06'0 0.0
2015-May-18 10:30N 54°11' E 012°06'0 0.0
2015-May-18 09:33N 54°11' E 012°06'0 0.0
2015-May-18 08:30N 54°11' E 012°06'0 0.0
2015-May-18 07:30N 54°11' E 012°06'0 0.0
2015-May-18 06:18N 54°11' E 012°06'0 0.0
2015-May-18 04:19N 54°11' E 012°06'0 0.5
2015-May-18 03:29N 54°11' E 012°06'1010.9
2015-May-18 02:33N 54°20' E 011°58'1312.9
2015-May-18 01:33N 54°30' E 012°13'1414.4
2015-May-18 00:33N 54°41' E 012°27'5714.0
2015-May-17 20:29N 55°04' E 013°58'1212.8
2015-May-17 19:33N 55°12' E 014°13'1413.7
2015-May-17 18:34N 55°23' E 014°28'1414.1
2015-May-17 17:33N 55°31' E 014°48'1413.8
2015-May-17 16:33N 55°39' E 015°09'1414.5
2015-May-17 15:33N 55°46' E 015°31'1514.8
2015-May-17 14:31N 55°53' E 015°55'9513.7
2015-May-17 07:33N 57°12' E 017°30'1514.5
2015-May-17 06:33N 57°26' E 017°39'14311.4
2015-May-16 18:00N 59°42' E 019°06'2710.4 160 / 141010.910.8 9.0 3.4 6.8
2015-May-16 15:22N 59°23' E 018°27'8 9.2
2015-May-16 14:30N 59°20' E 018°12'3 3.5
2015-May-16 13:33N 59°19' E 018°06'0 0.0
2015-May-16 12:33N 59°19' E 018°06'0 0.0
2015-May-16 11:32N 59°19' E 018°06'0 0.0
2015-May-16 10:31N 59°19' E 018°06'0 0.0
2015-May-16 09:31N 59°19' E 018°06'0 0.0
2015-May-16 08:31N 59°19' E 018°06'0 0.0
2015-May-16 07:31N 59°19' E 018°06'0 0.0
2015-May-16 06:31N 59°19' E 018°06'0 0.0
2015-May-16 05:33N 59°19' E 018°06'0 0.0
2015-May-16 04:33N 59°19' E 018°06'0 0.0
2015-May-16 03:33N 59°19' E 018°06'0 0.0
2015-May-16 02:32N 59°19' E 018°06'0 0.0
2015-May-16 01:32N 59°19' E 018°06'0 0.0
2015-May-16 00:32N 59°19' E 018°06'0 0.0
2015-May-15 23:32N 59°19' E 018°06'0 0.0
2015-May-15 22:32N 59°19' E 018°06'0 0.0
2015-May-15 21:32N 59°19' E 018°06'0 0.0
2015-May-15 20:31N 59°19' E 018°06'0 0.0
2015-May-15 19:31N 59°19' E 018°06'0 0.0
2015-May-15 18:31N 59°19' E 018°06'0 0.0
2015-May-15 17:33N 59°19' E 018°06'0 0.0
2015-May-15 16:33N 59°19' E 018°06'0 0.0
2015-May-15 15:33N 59°19' E 018°06'0 0.0
2015-May-15 14:32N 59°19' E 018°06'0 0.0
2015-May-15 13:32N 59°19' E 018°06'0 0.0
2015-May-15 12:32N 59°19' E 018°06'0 0.0
2015-May-15 11:31N 59°19' E 018°06'0 0.0
2015-May-15 10:28N 59°19' E 018°06'0 0.0
2015-May-15 09:28N 59°19' E 018°06'0 0.0
2015-May-15 08:31N 59°19' E 018°06'3 2.6
2015-May-15 07:27N 59°20' E 018°11'9710.9
2015-May-14 22:32N 59°31' E 021°21'1815.1
2015-May-14 21:21N 59°28' E 021°56'1814.2
2015-May-14 20:06N 59°31' E 022°30'3015.4
2015-May-14 18:11N 59°40' E 023°26'631.6
2015-May-14 18:00N 59°36' E 023°36'817.8 300 / 251003.510.8 1.0 9.0 2.3 5.0
2015-May-14 17:33N 59°42' E 023°44'1515.3
2015-May-14 16:34N 59°46' E 024°14'1514.5
2015-May-14 15:34N 59°52' E 024°41'19 1.6
2015-May-14 04:10N 60°09' E 024°55'4 6.7
2015-May-14 03:33N 60°05' E 024°54'4112.9
2015-May-14 00:23N 59°59' E 026°14'1113.8
2015-May-13 23:33N 60°01' E 026°37'1713.7
2015-May-13 22:20N 60°02' E 027°10'6813.9
2015-May-13 17:27N 60°02' E 029°26'1011.7
2015-May-13 16:33N 59°59' E 029°46'1110.8
2015-May-13 15:33N 59°57' E 030°07'2 1.9
2015-May-13 14:33N 59°57' E 030°11'0 0.0
2015-May-13 13:33N 59°57' E 030°11'0 0.0
2015-May-13 12:33N 59°57' E 030°11'0 0.0
2015-May-13 11:31N 59°57' E 030°11'0 0.0
2015-May-13 10:33N 59°57' E 030°11'0 0.0
2015-May-13 09:33N 59°57' E 030°11'0 0.0
2015-May-13 08:31N 59°57' E 030°11'0 0.0
2015-May-13 07:32N 59°57' E 030°11'0 0.0
2015-May-13 06:33N 59°57' E 030°11'0 0.0
2015-May-13 05:31N 59°57' E 030°11'0 0.0
2015-May-13 04:33N 59°57' E 030°11'0 0.0
2015-May-13 03:30N 59°57' E 030°11'0 0.0
2015-May-13 02:33N 59°57' E 030°11'0 0.0
2015-May-13 01:31N 59°57' E 030°11'0 0.0
2015-May-13 00:32N 59°57' E 030°11'0 0.0
2015-May-12 23:31N 59°57' E 030°11'0 0.0
2015-May-12 22:32N 59°57' E 030°11'0 0.0
2015-May-12 21:33N 59°57' E 030°11'0 0.0
2015-May-12 20:34N 59°57' E 030°11'0 0.0
2015-May-12 19:34N 59°57' E 030°11'0 0.0
2015-May-12 18:32N 59°57' E 030°11'0 0.0
2015-May-12 17:31N 59°57' E 030°11'0 0.0
2015-May-12 16:31N 59°57' E 030°11'0 0.0
2015-May-12 15:32N 59°57' E 030°11'0 0.0
2015-May-12 14:27N 59°57' E 030°11'0 0.0
2015-May-12 13:32N 59°57' E 030°11'0 0.0
2015-May-12 12:31N 59°57' E 030°11'0 0.0
2015-May-12 11:30N 59°57' E 030°11'0 0.0
2015-May-12 10:31N 59°57' E 030°11'0 0.0
2015-May-12 09:31N 59°57' E 030°11'0 0.0
2015-May-12 08:32N 59°57' E 030°11'0 0.0
2015-May-12 07:31N 59°57' E 030°11'0 0.0
2015-May-12 06:32N 59°57' E 030°11'  
Track history (hours):
 
Tides and Currents Weather Stations Pressure Air Temp Water Temp Dewpoint Dewpoint Depression Visibility Wind Speed Wind Dir Waves Ship Positions

Eurodam (Netherlands)

Last reported at 2015-May-22 06:04 UTC. Time now 2015-May-22 17:31 UTC.
Position N 55°47' E 015°59'.

Length 287 m; draft 8 m.

Type: Ship. MMSI: 245206000.

Date/timePositionNaut miles runAvg speedWind from/ knotsBaromVisibWave heightAir tempDewpointWater temp
2015-May-22 06:04N 55°47' E 015°59'816.8
2015-May-22 05:33N 55°43' E 015°45'1716.9
2015-May-22 04:33N 55°36' E 015°18'1717.1
2015-May-22 03:33N 55°28' E 014°52'1717.1
2015-May-22 02:33N 55°16' E 014°30'1817.6
2015-May-22 01:33N 55°02' E 014°11'1817.7
2015-May-22 00:33N 54°56' E 013°42'1817.6
2015-May-21 23:32N 54°51' E 013°12'1717.4
2015-May-21 22:33N 54°46' E 012°43'1717.1
2015-May-21 21:33N 54°37' E 012°19'1514.9
2015-May-21 20:33N 54°24' E 012°05'1616.3
2015-May-21 19:33N 54°26' E 011°38'1717.2
2015-May-21 18:33N 54°34' E 011°11'1716.5
2015-May-21 17:33N 54°34' E 010°42'1212.4
2015-May-21 16:33N 54°30' E 010°22'1211.5
2015-May-21 15:33N 54°21' E 010°10'2 1.7
2015-May-21 14:32N 54°20' E 010°09'0 0.0
2015-May-21 13:32N 54°20' E 010°09'0 0.0
2015-May-21 12:32N 54°20' E 010°09'0 0.0
2015-May-21 11:32N 54°20' E 010°09'0 0.0
2015-May-21 10:32N 54°20' E 010°09'0 0.0
2015-May-21 09:32N 54°20' E 010°09'0 0.0
2015-May-21 08:32N 54°20' E 010°09'0 0.0
2015-May-21 07:32N 54°20' E 010°09'0 0.0
2015-May-21 06:32N 54°20' E 010°09'0 0.0
2015-May-21 05:32N 54°20' E 010°09'0 0.0
2015-May-21 04:32N 54°20' E 010°09'4 3.6
2015-May-21 03:33N 54°23' E 010°11'1211.8
2015-May-21 02:33N 54°32' E 010°25'1212.0
2015-May-21 01:33N 54°37' E 010°43'9412.4
2015-May-20 18:00N 56°06' E 011°36'1023.1 220 / 151012.710.8 0.511.6 6.510.2
2015-May-20 17:33N 56°09' E 011°53'1515.2
2015-May-20 16:33N 56°12' E 012°20'1716.6
2015-May-20 15:34N 56°01' E 012°41'1615.6
2015-May-20 14:33N 55°45' E 012°41'3 2.8
2015-May-20 13:32N 55°43' E 012°38'0 0.0
2015-May-20 12:31N 55°43' E 012°38'0 0.0
2015-May-20 11:31N 55°43' E 012°38'0 0.0
2015-May-20 10:33N 55°43' E 012°38'0 0.0
2015-May-20 09:33N 55°43' E 012°38'0 0.0
2015-May-20 08:33N 55°43' E 012°38'0 0.0
2015-May-20 07:33N 55°43' E 012°38'0 0.0
2015-May-20 06:33N 55°43' E 012°38'0 0.0
2015-May-20 05:33N 55°43' E 012°38'0 0.0
2015-May-20 04:32N 55°43' E 012°38'0 0.0
2015-May-20 03:31N 55°43' E 012°38'0 0.0
2015-May-20 02:31N 55°43' E 012°38'0 0.0
2015-May-20 01:31N 55°43' E 012°38'0 0.0
2015-May-20 00:31N 55°43' E 012°38'0 0.0
2015-May-19 23:31N 55°43' E 012°38'0 0.0
2015-May-19 22:31N 55°43' E 012°38'0 0.0
2015-May-19 21:31N 55°43' E 012°38'0 0.0
2015-May-19 20:31N 55°43' E 012°38'0 0.0
2015-May-19 19:31N 55°43' E 012°38'0 0.0
2015-May-19 18:31N 55°43' E 012°38'0 0.0
2015-May-19 17:31N 55°43' E 012°38'0 0.0
2015-May-19 16:31N 55°43' E 012°38'0 0.0
2015-May-19 15:31N 55°43' E 012°38'0 0.0
2015-May-19 14:33N 55°43' E 012°38'0 0.0
2015-May-19 13:33N 55°43' E 012°38'0 0.0
2015-May-19 12:33N 55°43' E 012°38'0 0.0
2015-May-19 11:33N 55°43' E 012°38'0 0.0
2015-May-19 10:33N 55°43' E 012°38'0 0.0
2015-May-19 09:33N 55°43' E 012°38'0 0.2
2015-May-19 08:33N 55°43' E 012°38'1010.4
2015-May-19 07:33N 55°53' E 012°44'1313.5
2015-May-19 06:33N 56°05' E 012°35'1515.2
2015-May-19 05:34N 56°13' E 012°11'1615.5
2015-May-19 04:31N 56°07' E 011°44'9313.3
2015-May-18 21:33N 54°38' E 010°53'1717.1
2015-May-18 20:34N 54°33' E 011°21'1817.8
2015-May-18 19:34N 54°26' E 011°49'1514.6
2015-May-18 18:33N 54°14' E 012°04'4 3.2
2015-May-18 17:24N 54°11' E 012°06'0 0.0
2015-May-18 16:30N 54°11' E 012°06'0 0.0
2015-May-18 15:27N 54°11' E 012°06'0 0.0
2015-May-18 13:03N 54°11' E 012°06'0 0.0
2015-May-18 12:27N 54°11' E 012°06'0 0.0
2015-May-18 11:33N 54°11' E 012°06'0 0.0
2015-May-18 10:30N 54°11' E 012°06'0 0.0
2015-May-18 09:33N 54°11' E 012°06'0 0.0
2015-May-18 08:30N 54°11' E 012°06'0 0.0
2015-May-18 07:30N 54°11' E 012°06'0 0.0
2015-May-18 06:18N 54°11' E 012°06'0 0.0
2015-May-18 04:19N 54°11' E 012°06'0 0.5
2015-May-18 03:29N 54°11' E 012°06'1010.9
2015-May-18 02:33N 54°20' E 011°58'1312.9
2015-May-18 01:33N 54°30' E 012°13'1414.4
2015-May-18 00:33N 54°41' E 012°27'5714.0
2015-May-17 20:29N 55°04' E 013°58'1212.8
2015-May-17 19:33N 55°12' E 014°13'1413.7
2015-May-17 18:34N 55°23' E 014°28'1414.1
2015-May-17 17:33N 55°31' E 014°48'1413.8
2015-May-17 16:33N 55°39' E 015°09'1414.5
2015-May-17 15:33N 55°46' E 015°31'1514.8
2015-May-17 14:31N 55°53' E 015°55'9513.7
2015-May-17 07:33N 57°12' E 017°30'1514.5
2015-May-17 06:33N 57°26' E 017°39'14311.4
2015-May-16 18:00N 59°42' E 019°06'2710.4 160 / 141010.910.8 9.0 3.4 6.8
2015-May-16 15:22N 59°23' E 018°27'8 9.2
2015-May-16 14:30N 59°20' E 018°12'3 3.5
2015-May-16 13:33N 59°19' E 018°06'0 0.0
2015-May-16 12:33N 59°19' E 018°06'0 0.0
2015-May-16 11:32N 59°19' E 018°06'0 0.0
2015-May-16 10:31N 59°19' E 018°06'0 0.0
2015-May-16 09:31N 59°19' E 018°06'0 0.0
2015-May-16 08:31N 59°19' E 018°06'0 0.0
2015-May-16 07:31N 59°19' E 018°06'0 0.0
2015-May-16 06:31N 59°19' E 018°06'0 0.0
2015-May-16 05:33N 59°19' E 018°06'0 0.0
2015-May-16 04:33N 59°19' E 018°06'0 0.0
2015-May-16 03:33N 59°19' E 018°06'0 0.0
2015-May-16 02:32N 59°19' E 018°06'0 0.0
2015-May-16 01:32N 59°19' E 018°06'0 0.0
2015-May-16 00:32N 59°19' E 018°06'0 0.0
2015-May-15 23:32N 59°19' E 018°06'0 0.0
2015-May-15 22:32N 59°19' E 018°06'0 0.0
2015-May-15 21:32N 59°19' E 018°06'0 0.0
2015-May-15 20:31N 59°19' E 018°06'0 0.0
2015-May-15 19:31N 59°19' E 018°06'0 0.0
2015-May-15 18:31N 59°19' E 018°06'0 0.0
2015-May-15 17:33N 59°19' E 018°06'0 0.0
2015-May-15 16:33N 59°19' E 018°06'0 0.0
2015-May-15 15:33N 59°19' E 018°06'0 0.0
2015-May-15 14:32N 59°19' E 018°06'0 0.0
2015-May-15 13:32N 59°19' E 018°06'0 0.0
2015-May-15 12:32N 59°19' E 018°06'0 0.0
2015-May-15 11:31N 59°19' E 018°06'0 0.0
2015-May-15 10:28N 59°19' E 018°06'0 0.0
2015-May-15 09:28N 59°19' E 018°06'0 0.0
2015-May-15 08:31N 59°19' E 018°06'3 2.6
2015-May-15 07:27N 59°20' E 018°11'9710.9
2015-May-14 22:32N 59°31' E 021°21'1815.1
2015-May-14 21:21N 59°28' E 021°56'1814.2
2015-May-14 20:06N 59°31' E 022°30'3015.4
2015-May-14 18:11N 59°40' E 023°26'631.6
2015-May-14 18:00N 59°36' E 023°36'817.8 300 / 251003.510.8 1.0 9.0 2.3 5.0
2015-May-14 17:33N 59°42' E 023°44'1515.3
2015-May-14 16:34N 59°46' E 024°14'1514.5
2015-May-14 15:34N 59°52' E 024°41'19 1.6
2015-May-14 04:10N 60°09' E 024°55'4 6.7
2015-May-14 03:33N 60°05' E 024°54'4112.9
2015-May-14 00:23N 59°59' E 026°14'1113.8
2015-May-13 23:33N 60°01' E 026°37'1713.7
2015-May-13 22:20N 60°02' E 027°10'6813.9
2015-May-13 17:27N 60°02' E 029°26'1011.7
2015-May-13 16:33N 59°59' E 029°46'1110.8
2015-May-13 15:33N 59°57' E 030°07'2 1.9
2015-May-13 14:33N 59°57' E 030°11'0 0.0
2015-May-13 13:33N 59°57' E 030°11'0 0.0
2015-May-13 12:33N 59°57' E 030°11'0 0.0
2015-May-13 11:31N 59°57' E 030°11'0 0.0
2015-May-13 10:33N 59°57' E 030°11'0 0.0
2015-May-13 09:33N 59°57' E 030°11'0 0.0
2015-May-13 08:31N 59°57' E 030°11'0 0.0
2015-May-13 07:32N 59°57' E 030°11'0 0.0
2015-May-13 06:33N 59°57' E 030°11'0 0.0
2015-May-13 05:31N 59°57' E 030°11'0 0.0
2015-May-13 04:33N 59°57' E 030°11'0 0.0
2015-May-13 03:30N 59°57' E 030°11'0 0.0
2015-May-13 02:33N 59°57' E 030°11'0 0.0
2015-May-13 01:31N 59°57' E 030°11'0 0.0
2015-May-13 00:32N 59°57' E 030°11'0 0.0
2015-May-12 23:31N 59°57' E 030°11'0 0.0
2015-May-12 22:32N 59°57' E 030°11'0 0.0
2015-May-12 21:33N 59°57' E 030°11'0 0.0
2015-May-12 20:34N 59°57' E 030°11'0 0.0
2015-May-12 19:34N 59°57' E 030°11'0 0.0
2015-May-12 18:32N 59°57' E 030°11'0 0.0
2015-May-12 17:31N 59°57' E 030°11'0 0.0
2015-May-12 16:31N 59°57' E 030°11'0 0.0
2015-May-12 15:32N 59°57' E 030°11'0 0.0
2015-May-12 14:27N 59°57' E 030°11'0 0.0
2015-May-12 13:32N 59°57' E 030°11'0 0.0
2015-May-12 12:31N 59°57' E 030°11'0 0.0
2015-May-12 11:30N 59°57' E 030°11'0 0.0
2015-May-12 10:31N 59°57' E 030°11'0 0.0
2015-May-12 09:31N 59°57' E 030°11'0 0.0
2015-May-12 08:32N 59°57' E 030°11'0 0.0
2015-May-12 07:31N 59°57' E 030°11'0 0.0
2015-May-12 06:32N 59°57' E 030°11'  

Dump ship's entire track history